Terminal Aerodrome Forecast
Issued by NWS Charleston, WV

Current Version | Previous Version | Text Only | Print | Product List | Glossary Off
Versions: 1 2 3 4 5 6 7 8 9 10 11 12 13 14 15 16 17 18 19 20 21 22 23 24 25

000
FTUS41 KRLX 131442 AAA
TAFCRW
TAF AMD
KCRW 131442Z 1315/1412 33009KT 1SM -SN OVC012
     FM131600 33009G16KT P6SM -SN OVC015
     FM131700 34010G16KT P6SM OVC025
     FM132000 33009KT P6SM BKN030
     FM140200 34006KT P6SM BKN035=

USA.gov is the U.S. government's official web portal to all federal, state and local government web resources and services.